Terminal Aerodrome Forecast
Issued by NWS Cleveland, OH

Home | Current Version | Previous Version | Graphics & Text | Print | Product List | Glossary Off
Versions: 1 2 3 4 5 6 7 8 9 10 11 12 13 14 15 16 17 18 19 20 21 22 23

000
FTUS41 KCLE 220537
TAFMFD
TAF
KMFD 220537Z 2206/2306 18008KT 3SM BR OVC005
      TEMPO 2208/2212 2SM -SHRA BR OVC008
     FM221200 18010KT P6SM OVC012 WS020/21040KT
     FM221400 18014G22KT P6SM OVC025
     FM222100 18014G22KT 3SM -RA BR OVC012=

USA.gov is the U.S. government's official web portal to all federal, state and local government web resources and services.